Time;durP1;ratioP1;P1;durP2;ratioP2;P2;SDS_P1;SDS_P2;PMS_P1;PMS_P2;Temp;Humidity;BMP_temperature;BMP_pressure;BME280_temperature;BME280_humidity;BME280_pressure;Samples;Min_cycle;Max_cycle;Signal;HPM_P1;HPM_P2
2023/03/08 00:00:13;;;;;;;0.30;0.30;;;1.80;99.90;;;;;;5087403;28;20254;-83
2023/03/08 00:02:39;;;;;;;0.30;0.30;;;1.90;99.90;;;;;;5069457;28;20227;-83
2023/03/08 00:05:05;;;;;;;0.30;0.30;;;1.80;99.90;;;;;;5068792;28;20224;-84
2023/03/08 00:07:32;;;;;;;0.30;0.30;;;1.80;99.90;;;;;;5052396;28;20285;-84
2023/03/08 00:09:57;;;;;;;0.40;0.40;;;1.90;99.90;;;;;;5052836;28;20188;-84
2023/03/08 00:12:23;;;;;;;0.30;0.30;;;1.90;99.90;;;;;;5052517;28;20216;-83
2023/03/08 00:14:49;;;;;;;0.30;0.30;;;2.00;99.90;;;;;;5087639;28;20308;-81
2023/03/08 00:17:16;;;;;;;0.40;0.40;;;2.00;99.90;;;;;;5087298;28;20291;-84
2023/03/08 00:19:42;;;;;;;3.20;0.70;;;2.00;99.90;;;;;;5069562;28;20220;-83
2023/03/08 00:22:09;;;;;;;0.40;0.40;;;2.00;99.90;;;;;;5087373;28;20254;-82
2023/03/08 00:24:35;;;;;;;0.40;0.40;;;2.00;99.90;;;;;;5069608;28;20236;-83
2023/03/08 00:27:00;;;;;;;0.30;0.30;;;1.90;99.90;;;;;;5052714;28;20716;-83
2023/03/08 00:29:26;;;;;;;0.30;0.30;;;1.90;99.90;;;;;;5069371;28;20216;-83
2023/03/08 00:31:52;;;;;;;0.30;0.30;;;1.90;99.90;;;;;;5068609;28;20752;-83
2023/03/08 00:34:18;;;;;;;0.30;0.30;;;1.80;99.90;;;;;;5052144;28;20192;-83
2023/03/08 00:36:43;;;;;;;0.30;0.30;;;1.80;99.90;;;;;;5087109;28;20801;-83
2023/03/08 00:39:10;;;;;;;0.20;0.20;;;1.70;99.90;;;;;;5068371;28;20760;-83
2023/03/08 00:41:37;;;;;;;0.40;0.40;;;1.70;99.90;;;;;;5068598;28;20240;-83
2023/03/08 00:44:03;;;;;;;0.30;0.30;;;1.60;99.90;;;;;;5069943;28;20343;-82
2023/03/08 00:46:29;;;;;;;0.30;0.30;;;1.60;99.90;;;;;;5072315;28;20689;-82
2023/03/08 00:48:55;;;;;;;0.30;0.30;;;1.80;99.90;;;;;;5073022;28;20284;-82
2023/03/08 00:51:21;;;;;;;0.30;0.30;;;2.10;99.90;;;;;;5090647;28;20352;-82
2023/03/08 00:53:47;;;;;;;0.30;0.30;;;2.30;99.90;;;;;;5072870;28;20380;-82
2023/03/08 00:56:13;;;;;;;0.40;0.40;;;2.30;99.90;;;;;;5056178;28;20737;-81
2023/03/08 00:58:40;;;;;;;0.30;0.30;;;2.30;99.90;;;;;;5091103;28;20217;-82
2023/03/08 01:01:07;;;;;;;0.30;0.30;;;2.20;99.90;;;;;;5056310;28;20233;-82
2023/03/08 01:03:33;;;;;;;0.30;0.30;;;2.20;99.90;;;;;;5073245;28;20222;-82
2023/03/08 01:06:06;;;;;;;0.50;0.50;;;2.20;99.90;;;;;;5090614;28;20311;-81
2023/03/08 01:08:32;;;;;;;0.30;0.30;;;2.20;99.90;;;;;;5090471;28;20224;-82
2023/03/08 01:10:59;;;;;;;0.30;0.30;;;2.20;99.90;;;;;;5089712;28;20416;-83
2023/03/08 01:17:06;;;;;;;0.20;0.20;;;2.00;99.90;;;;;;5112423;22;20247;-92
2023/03/08 01:19:31;;;;;;;0.20;0.20;;;2.00;99.90;;;;;;5096103;28;20244;-92
2023/03/08 01:21:57;;;;;;;0.30;0.30;;;2.00;99.90;;;;;;5098320;28;20202;-92
2023/03/08 01:24:23;;;;;;;0.33;0.33;;;2.00;99.90;;;;;;5115762;28;20260;-92
2023/03/08 01:26:49;;;;;;;0.30;0.30;;;2.00;99.90;;;;;;5088886;28;20212;-92
2023/03/08 01:29:14;;;;;;;0.30;0.30;;;2.00;99.90;;;;;;5098714;28;20200;-93
2023/03/08 01:31:40;;;;;;;0.63;0.63;;;2.00;99.90;;;;;;5104227;28;20242;-91
2023/03/08 01:34:08;;;;;;;0.30;0.30;;;1.90;99.90;;;;;;5118848;27;20759;-91
2023/03/08 01:36:34;;;;;;;0.30;0.30;;;1.90;99.90;;;;;;5119208;28;20187;-93
2023/03/08 01:39:00;;;;;;;0.30;0.30;;;1.90;99.90;;;;;;5115253;28;20224;-93
2023/03/08 01:41:29;;;;;;;0.30;0.30;;;1.80;99.90;;;;;;5098208;28;20220;-94
2023/03/08 01:43:55;;;;;;;0.50;0.50;;;1.90;99.90;;;;;;5133074;27;20216;-92
2023/03/08 01:46:31;;;;;;;0.30;0.30;;;1.90;99.90;;;;;;5118198;28;20801;-93
2023/03/08 01:49:14;;;;;;;0.30;0.30;;;1.90;99.90;;;;;;5135447;27;20316;-94
2023/03/08 01:52:07;;;;;;;0.30;0.30;;;1.80;99.90;;;;;;5114560;27;20232;-90
2023/03/08 01:54:42;;;;;;;0.30;0.30;;;1.80;99.90;;;;;;5097781;28;20216;-93
2023/03/08 01:57:15;;;;;;;0.30;0.30;;;1.80;99.90;;;;;;5104868;28;20225;-93
2023/03/08 01:59:42;;;;;;;0.30;0.30;;;1.70;99.90;;;;;;5114386;27;20252;-93
2023/03/08 02:02:09;;;;;;;0.30;0.30;;;1.60;99.90;;;;;;5106072;27;20613;-92
2023/03/08 02:04:35;;;;;;;0.30;0.30;;;1.50;99.90;;;;;;5087370;28;20319;-93
2023/03/08 02:07:01;;;;;;;0.30;0.30;;;1.40;99.90;;;;;;5120201;28;20195;-93
2023/03/08 02:09:30;;;;;;;0.30;0.30;;;1.40;99.90;;;;;;5104974;28;20219;-93
2023/03/08 02:12:00;;;;;;;0.30;0.30;;;1.40;99.90;;;;;;5087985;28;20591;-92
2023/03/08 02:14:29;;;;;;;0.30;0.30;;;1.40;99.90;;;;;;5107820;28;20243;-93
2023/03/08 02:16:55;;;;;;;0.40;0.40;;;1.30;99.90;;;;;;5100670;28;20223;-92
2023/03/08 02:19:36;;;;;;;0.30;0.30;;;1.30;99.90;;;;;;5118059;28;20202;-93
2023/03/08 02:22:10;;;;;;;0.30;0.30;;;1.30;99.90;;;;;;5109617;28;20195;-93
2023/03/08 02:24:36;;;;;;;0.37;0.37;;;1.20;99.90;;;;;;5101961;28;20232;-93
2023/03/08 02:27:31;;;;;;;0.30;0.30;;;1.10;99.90;;;;;;5104203;28;20226;-93
2023/03/08 02:29:57;;;;;;;0.30;0.30;;;1.00;99.90;;;;;;5103049;28;20215;-92
2023/03/08 02:32:23;;;;;;;0.30;0.30;;;1.00;99.90;;;;;;5103073;28;20277;-91
2023/03/08 02:34:49;;;;;;;0.33;0.33;;;0.90;99.90;;;;;;5088985;28;20215;-93
2023/03/08 02:37:15;;;;;;;0.40;0.40;;;0.80;99.90;;;;;;5097115;28;20210;-93
2023/03/08 02:39:41;;;;;;;0.30;0.30;;;0.80;99.90;;;;;;5088742;28;20276;-94
2023/03/08 02:42:06;;;;;;;0.30;0.30;;;0.70;99.90;;;;;;5096634;28;20688;-93
2023/03/08 02:44:32;;;;;;;0.37;0.37;;;0.70;99.90;;;;;;5096304;28;20216;-91
2023/03/08 02:46:58;;;;;;;0.23;0.23;;;0.70;99.90;;;;;;5061411;28;20252;-92
2023/03/08 02:49:24;;;;;;;0.30;0.30;;;0.70;99.90;;;;;;5060400;28;20220;-90
2023/03/08 02:51:50;;;;;;;0.30;0.30;;;0.70;99.90;;;;;;5094855;28;20172;-90
2023/03/08 02:54:15;;;;;;;0.23;0.23;;;0.70;99.90;;;;;;5077070;28;20278;-92
2023/03/08 02:56:41;;;;;;;0.30;0.30;;;0.70;99.90;;;;;;5062379;28;20204;-91
2023/03/08 02:59:07;;;;;;;0.40;0.40;;;0.70;99.90;;;;;;5086486;28;20265;-91
2023/03/08 03:01:33;;;;;;;0.40;0.40;;;0.70;99.90;;;;;;5081432;27;20206;-91
2023/03/08 03:03:58;;;;;;;0.40;0.40;;;0.60;99.90;;;;;;5098519;27;20183;-92
2023/03/08 03:06:24;;;;;;;0.30;0.30;;;0.60;99.90;;;;;;5061873;28;20204;-93
2023/03/08 03:08:51;;;;;;;0.30;0.30;;;0.50;99.90;;;;;;5079355;28;20679;-92
2023/03/08 03:11:19;;;;;;;0.30;0.30;;;0.40;99.90;;;;;;5104340;28;20207;-93
2023/03/08 03:13:46;;;;;;;0.40;0.40;;;0.40;99.90;;;;;;5101994;28;20326;-92
2023/03/08 03:16:14;;;;;;;0.30;0.30;;;0.40;99.90;;;;;;5112815;28;20188;-92
2023/03/08 03:18:41;;;;;;;0.30;0.30;;;0.40;99.90;;;;;;5114920;28;20188;-92
2023/03/08 03:21:10;;;;;;;0.43;0.43;;;0.40;99.90;;;;;;5115298;27;20211;-93
2023/03/08 03:23:36;;;;;;;0.30;0.30;;;0.50;99.90;;;;;;5114395;28;20207;-92
2023/03/08 03:26:11;;;;;;;0.30;0.30;;;0.50;99.90;;;;;;5103090;28;20277;-92
2023/03/08 03:28:37;;;;;;;0.90;0.83;;;0.50;99.90;;;;;;5101257;27;20218;-91
2023/03/08 03:31:12;;;;;;;0.30;0.30;;;0.50;99.90;;;;;;5101251;27;20187;-92
2023/03/08 03:33:38;;;;;;;0.30;0.30;;;0.50;99.90;;;;;;5094747;28;20216;-93
2023/03/08 03:36:05;;;;;;;0.20;0.20;;;0.50;99.90;;;;;;5112515;28;20326;-93
2023/03/08 03:38:31;;;;;;;0.30;0.30;;;0.50;99.90;;;;;;5109567;27;20219;-93
2023/03/08 03:41:02;;;;;;;0.30;0.30;;;0.60;99.90;;;;;;5109567;27;20365;-91
2023/03/08 03:43:31;;;;;;;3.20;1.07;;;0.60;99.90;;;;;;5118249;28;20271;-92
2023/03/08 03:45:58;;;;;;;0.20;0.20;;;0.60;99.90;;;;;;5117798;28;20215;-91
2023/03/08 03:48:24;;;;;;;0.30;0.30;;;0.60;99.90;;;;;;5116328;27;20211;-92
2023/03/08 03:51:05;;;;;;;0.37;0.37;;;0.50;99.90;;;;;;5116048;28;20354;-92
2023/03/08 03:53:33;;;;;;;0.30;0.30;;;0.50;99.90;;;;;;5116385;27;20219;-92
2023/03/08 03:56:14;;;;;;;0.77;0.77;;;0.40;99.90;;;;;;5105012;28;20211;-93
2023/03/08 03:58:40;;;;;;;0.30;0.30;;;0.40;99.90;;;;;;5091691;28;20306;-92
2023/03/08 04:01:26;;;;;;;0.40;0.40;;;0.40;99.90;;;;;;5092067;28;20225;-93
2023/03/08 04:03:53;;;;;;;0.30;0.30;;;0.40;99.90;;;;;;5112505;28;20647;-91
2023/03/08 04:06:24;;;;;;;0.27;0.27;;;0.40;99.90;;;;;;5094691;28;20212;-93
2023/03/08 04:08:58;;;;;;;0.23;0.23;;;0.40;99.90;;;;;;5095857;28;20722;-93
2023/03/08 04:11:27;;;;;;;0.30;0.30;;;0.40;99.90;;;;;;5094316;28;20212;-94
2023/03/08 04:13:53;;;;;;;0.30;0.30;;;0.50;99.90;;;;;;5102942;28;20584;-92
2023/03/08 04:16:24;;;;;;;0.30;0.30;;;0.50;99.90;;;;;;5094650;28;20195;-93
2023/03/08 04:18:58;;;;;;;0.37;0.37;;;0.50;99.90;;;;;;5096438;28;20652;-92
2023/03/08 04:21:24;;;;;;;0.30;0.30;;;0.40;99.90;;;;;;5098066;28;20204;-93
2023/03/08 04:23:51;;;;;;;0.50;0.50;;;0.50;99.90;;;;;;5081920;28;20277;-93
2023/03/08 04:26:17;;;;;;;0.30;0.30;;;0.40;99.90;;;;;;5098419;28;20204;-93
2023/03/08 04:28:43;;;;;;;0.50;0.50;;;0.40;99.90;;;;;;5099025;28;20347;-93
2023/03/08 04:31:14;;;;;;;0.40;0.40;;;0.40;99.90;;;;;;5080911;28;21253;-94
2023/03/08 04:33:40;;;;;;;0.40;0.40;;;0.40;99.90;;;;;;5098770;28;20655;-93
2023/03/08 04:36:07;;;;;;;0.40;0.40;;;0.30;99.90;;;;;;5097930;28;20216;-93
2023/03/08 04:38:33;;;;;;;0.20;0.20;;;0.30;99.90;;;;;;5097913;28;20298;-93
2023/03/08 04:41:05;;;;;;;0.47;0.47;;;0.30;99.90;;;;;;5097722;28;20208;-93
2023/03/08 04:43:32;;;;;;;0.30;0.30;;;0.30;99.90;;;;;;5069924;28;20253;-92
2023/03/08 04:45:59;;;;;;;0.30;0.30;;;0.30;99.90;;;;;;5095023;28;20204;-94
2023/03/08 04:48:24;;;;;;;0.30;0.30;;;0.30;99.90;;;;;;5068604;28;20602;-92
2023/03/08 04:50:55;;;;;;;0.30;0.30;;;0.30;99.90;;;;;;5092782;27;20210;-93
2023/03/08 04:53:21;;;;;;;0.20;0.20;;;0.40;99.90;;;;;;5101638;27;20216;-92
2023/03/08 04:55:48;;;;;;;0.30;0.30;;;0.40;99.90;;;;;;5125853;27;20283;-94
2023/03/08 04:58:13;;;;;;;0.30;0.30;;;0.40;99.90;;;;;;5102839;27;20184;-93
2023/03/08 05:00:39;;;;;;;0.23;0.23;;;0.50;99.90;;;;;;5120091;27;20183;-92
2023/03/08 05:03:05;;;;;;;0.30;0.30;;;0.50;99.90;;;;;;5117936;27;20755;-93
2023/03/08 05:05:31;;;;;;;0.40;0.40;;;0.50;99.90;;;;;;5119482;27;20314;-93
2023/03/08 05:08:06;;;;;;;0.20;0.20;;;0.60;99.90;;;;;;5102034;27;20218;-93
2023/03/08 05:10:32;;;;;;;0.30;0.30;;;0.60;99.90;;;;;;5117978;27;20209;-92
2023/03/08 05:12:57;;;;;;;0.30;0.30;;;0.60;99.90;;;;;;5116474;28;20172;-92
2023/03/08 05:15:23;;;;;;;0.37;0.37;;;0.50;99.90;;;;;;5116013;27;20211;-92
2023/03/08 05:17:50;;;;;;;0.30;0.30;;;0.50;99.90;;;;;;5098346;28;20783;-92
2023/03/08 05:20:17;;;;;;;0.30;0.30;;;0.50;99.90;;;;;;5091525;28;20727;-92
2023/03/08 05:22:43;;;;;;;0.30;0.30;;;0.50;99.90;;;;;;5095323;28;20212;-91
2023/03/08 05:25:09;;;;;;;0.43;0.43;;;0.50;99.90;;;;;;5078508;28;20252;-92
2023/03/08 05:27:36;;;;;;;0.50;0.50;;;0.40;99.90;;;;;;5098626;28;20588;-94
2023/03/08 05:30:04;;;;;;;0.40;0.40;;;0.40;99.90;;;;;;5101062;28;20200;-94
2023/03/08 05:32:37;;;;;;;0.40;0.40;;;0.30;99.90;;;;;;5118137;28;20268;-92
2023/03/08 05:35:03;;;;;;;0.30;0.30;;;0.30;99.90;;;;;;5093152;28;20232;-93
2023/03/08 05:37:29;;;;;;;0.30;0.30;;;0.30;99.90;;;;;;5064342;28;20267;-93
2023/03/08 05:39:55;;;;;;;0.30;0.30;;;0.30;99.90;;;;;;5096461;28;20207;-90
2023/03/08 05:42:20;;;;;;;0.33;0.33;;;0.40;99.90;;;;;;5078327;28;20211;-90
2023/03/08 05:44:49;;;;;;;0.30;0.30;;;0.40;99.90;;;;;;5061084;28;20227;-90
2023/03/08 05:47:15;;;;;;;0.30;0.30;;;0.40;99.90;;;;;;5078131;28;20208;-90
2023/03/08 05:49:41;;;;;;;0.30;0.30;;;0.40;99.90;;;;;;5087065;28;20309;-90
2023/03/08 05:52:06;;;;;;;1.60;1.50;;;0.30;99.90;;;;;;5078194;28;20192;-90
2023/03/08 05:54:32;;;;;;;0.30;0.30;;;0.40;99.90;;;;;;5079189;28;20195;-94
2023/03/08 05:56:58;;;;;;;0.30;0.30;;;0.40;99.90;;;;;;5078253;28;20208;-92
2023/03/08 05:59:25;;;;;;;3.97;0.97;;;0.40;99.90;;;;;;5095410;28;20211;-92
2023/03/08 06:01:51;;;;;;;1.50;0.93;;;0.40;99.90;;;;;;5077971;28;21218;-93
2023/03/08 06:04:16;;;;;;;0.30;0.30;;;0.40;99.90;;;;;;5078045;28;20254;-92
2023/03/08 06:06:42;;;;;;;2.23;2.13;;;0.40;99.90;;;;;;5094852;28;20176;-93
2023/03/08 06:09:08;;;;;;;0.53;0.53;;;0.40;99.90;;;;;;5095087;28;20231;-93
2023/03/08 06:11:34;;;;;;;0.40;0.40;;;0.40;99.90;;;;;;5077432;28;20219;-93
2023/03/08 06:13:59;;;;;;;0.60;0.60;;;0.40;99.90;;;;;;5078264;28;20249;-93
2023/03/08 06:16:28;;;;;;;0.30;0.30;;;0.40;99.90;;;;;;5076667;28;20228;-93
2023/03/08 06:18:54;;;;;;;0.50;0.50;;;0.40;99.90;;;;;;5095229;28;20200;-92
2023/03/08 06:21:21;;;;;;;1.60;1.50;;;0.50;99.90;;;;;;5059369;28;20674;-92
2023/03/08 06:23:48;;;;;;;1.07;1.00;;;0.40;99.90;;;;;;5065696;28;20220;-92
2023/03/08 06:26:15;;;;;;;1.00;1.00;;;0.30;99.90;;;;;;5085103;28;20247;-93
2023/03/08 06:28:41;;;;;;;0.50;0.50;;;0.30;99.90;;;;;;5082763;28;20300;-93
2023/03/08 06:31:11;;;;;;;0.50;0.50;;;0.30;99.90;;;;;;5065450;28;20191;-92
2023/03/08 06:33:37;;;;;;;0.40;0.40;;;0.20;99.90;;;;;;5101763;28;20231;-92
2023/03/08 06:36:11;;;;;;;0.30;0.30;;;0.20;99.90;;;;;;5043905;28;20216;-93
2023/03/08 06:38:39;;;;;;;0.30;0.30;;;0.30;99.90;;;;;;5074413;28;20220;-92
2023/03/08 06:41:07;;;;;;;0.40;0.40;;;0.30;99.90;;;;;;5079319;28;20206;-91
2023/03/08 06:43:34;;;;;;;0.40;0.40;;;0.40;99.90;;;;;;5090469;28;21035;-91
2023/03/08 06:46:08;;;;;;;0.40;0.40;;;0.50;99.90;;;;;;5077985;28;20717;-93
2023/03/08 06:48:37;;;;;;;1.53;1.50;;;0.50;99.90;;;;;;5075420;28;20665;-94
2023/03/08 06:51:04;;;;;;;0.53;0.53;;;0.60;99.90;;;;;;5066835;28;20236;-93
2023/03/08 06:53:30;;;;;;;1.43;1.37;;;0.70;99.90;;;;;;5074504;28;20217;-94
2023/03/08 06:55:57;;;;;;;2.20;1.97;;;0.80;99.90;;;;;;5076854;28;20204;-94
2023/03/08 06:58:25;;;;;;;0.33;0.33;;;1.00;99.90;;;;;;5076568;28;20176;-93
2023/03/08 07:00:53;;;;;;;0.40;0.40;;;1.10;99.90;;;;;;5078760;28;20279;-94
2023/03/08 07:03:19;;;;;;;0.50;0.50;;;1.30;99.90;;;;;;5076924;28;20216;-93
2023/03/08 07:05:45;;;;;;;0.40;0.40;;;1.50;99.90;;;;;;5075978;28;20221;-94
2023/03/08 07:08:14;;;;;;;0.50;0.50;;;1.50;99.90;;;;;;5077258;28;20220;-94
2023/03/08 07:10:46;;;;;;;0.40;0.40;;;1.60;99.90;;;;;;5058807;28;20220;-94
2023/03/08 07:13:11;;;;;;;0.40;0.40;;;1.70;99.90;;;;;;5058509;28;20246;-94
2023/03/08 07:15:39;;;;;;;0.30;0.30;;;1.80;99.90;;;;;;5060855;28;20196;-93
2023/03/08 07:18:05;;;;;;;23.63;12.43;;;1.90;99.90;;;;;;5110784;27;20223;-93
2023/03/08 07:20:31;;;;;;;15.47;7.33;;;1.90;99.90;;;;;;5112173;28;20269;-93
2023/03/08 07:23:00;;;;;;;13.77;6.27;;;2.00;99.90;;;;;;5096271;28;20218;-94
2023/03/08 07:25:26;;;;;;;1.33;1.33;;;2.10;99.90;;;;;;5111592;27;20272;-92
2023/03/08 07:27:52;;;;;;;0.60;0.60;;;2.10;99.90;;;;;;5078413;28;20183;-92
2023/03/08 07:30:18;;;;;;;0.30;0.30;;;2.20;99.90;;;;;;5077384;28;20598;-91
2023/03/08 07:32:44;;;;;;;0.30;0.30;;;2.20;99.90;;;;;;5095930;28;20283;-95
2023/03/08 07:35:14;;;;;;;1.70;0.93;;;2.20;99.90;;;;;;5061323;28;20226;-94
2023/03/08 07:37:43;;;;;;;0.50;0.50;;;2.30;99.90;;;;;;5093934;28;21275;-93
2023/03/08 07:40:11;;;;;;;0.40;0.40;;;2.20;99.90;;;;;;5094157;28;21144;-93
2023/03/08 07:42:37;;;;;;;0.40;0.40;;;2.30;99.90;;;;;;5095466;28;20652;-94
2023/03/08 07:45:03;;;;;;;0.40;0.40;;;2.30;99.90;;;;;;5076766;28;20220;-93
2023/03/08 07:47:29;;;;;;;0.30;0.30;;;2.30;99.90;;;;;;5076604;28;20207;-92
2023/03/08 07:49:55;;;;;;;0.30;0.30;;;2.40;99.90;;;;;;5093894;28;20404;-92
2023/03/08 07:52:27;;;;;;;1.13;1.13;;;2.30;99.90;;;;;;5078778;27;20603;-92
2023/03/08 07:54:52;;;;;;;0.50;0.50;;;1.90;99.90;;;;;;5130925;27;20183;-92
2023/03/08 07:57:18;;;;;;;0.70;0.70;;;1.70;99.90;;;;;;5096701;28;20218;-92
2023/03/08 07:59:44;;;;;;;1.10;1.10;;;1.50;99.90;;;;;;5088414;28;20246;-92
2023/03/08 08:02:14;;;;;;;1.63;1.60;;;1.70;99.90;;;;;;5088151;28;20730;-92
2023/03/08 08:04:40;;;;;;;1.83;1.73;;;1.90;99.90;;;;;;5093465;28;20212;-92
2023/03/08 08:07:10;;;;;;;0.60;0.60;;;2.10;99.90;;;;;;5092751;28;20194;-92
2023/03/08 08:09:36;;;;;;;0.77;0.67;;;2.30;99.90;;;;;;5093821;28;20176;-92
2023/03/08 08:12:04;;;;;;;0.53;0.53;;;2.30;99.90;;;;;;5058974;28;20211;-91
2023/03/08 08:14:29;;;;;;;0.73;0.60;;;2.30;99.90;;;;;;5076601;28;20208;-92
2023/03/08 08:16:56;;;;;;;0.70;0.70;;;2.30;99.90;;;;;;5056461;28;20743;-92
2023/03/08 08:19:22;;;;;;;0.50;0.50;;;2.40;99.90;;;;;;5093036;28;20271;-92
2023/03/08 08:21:48;;;;;;;0.70;0.70;;;2.70;99.90;;;;;;5094268;28;20279;-91
2023/03/08 08:24:14;;;;;;;0.67;0.67;;;2.90;99.90;;;;;;5081823;28;20688;-92
2023/03/08 08:26:40;;;;;;;0.43;0.43;;;2.90;99.90;;;;;;5078696;28;20288;-95
2023/03/08 08:29:06;;;;;;;1.00;0.67;;;2.90;99.90;;;;;;5098582;28;20638;-90
2023/03/08 08:31:32;;;;;;;0.87;0.87;;;3.00;99.90;;;;;;5096896;28;20208;-91
2023/03/08 08:33:59;;;;;;;0.50;0.50;;;3.10;99.90;;;;;;5101082;28;20185;-95
2023/03/08 08:36:25;;;;;;;1.87;1.77;;;3.20;99.90;;;;;;5106163;28;20201;-95
2023/03/08 08:38:51;;;;;;;1.10;0.97;;;3.20;99.90;;;;;;5088426;28;20333;-93
2023/03/08 08:41:21;;;;;;;0.70;0.70;;;3.20;99.90;;;;;;5110643;28;20273;-94
2023/03/08 08:43:47;;;;;;;0.70;0.70;;;3.20;99.90;;;;;;5088078;28;20205;-93
2023/03/08 08:46:14;;;;;;;0.43;0.43;;;3.50;99.90;;;;;;5089701;28;20204;-92
2023/03/08 08:48:41;;;;;;;0.83;0.63;;;3.60;99.90;;;;;;5090440;28;20181;-90
2023/03/08 08:51:08;;;;;;;1.30;1.23;;;3.70;99.90;;;;;;5072663;28;20208;-91
2023/03/08 08:53:35;;;;;;;1.23;1.23;;;4.00;99.90;;;;;;5089006;28;20220;-91
2023/03/08 08:56:22;;;;;;;0.33;0.33;;;4.00;99.90;;;;;;5094259;28;20737;-92
2023/03/08 08:58:48;;;;;;;0.57;0.57;;;4.10;99.90;;;;;;5097313;28;20219;-92
2023/03/08 09:01:20;;;;;;;0.60;0.60;;;4.00;99.90;;;;;;5089252;28;20185;-91
2023/03/08 09:03:46;;;;;;;0.70;0.70;;;3.90;99.90;;;;;;5106542;28;20181;-92
2023/03/08 09:06:13;;;;;;;7.50;2.90;;;3.60;99.90;;;;;;5075513;28;20220;-92
2023/03/08 09:08:40;;;;;;;1.00;1.00;;;3.50;99.90;;;;;;5076155;28;20235;-91
2023/03/08 09:11:08;;;;;;;0.60;0.60;;;3.60;99.90;;;;;;5092998;28;20240;-91
2023/03/08 09:13:34;;;;;;;0.70;0.70;;;3.70;99.90;;;;;;5096840;28;20223;-92
2023/03/08 09:16:00;;;;;;;1.17;1.17;;;3.90;99.90;;;;;;5114171;28;20246;-92
2023/03/08 09:18:26;;;;;;;0.40;0.40;;;4.00;99.90;;;;;;5079333;28;20262;-93
2023/03/08 09:20:52;;;;;;;0.40;0.40;;;4.00;99.90;;;;;;5096370;28;20219;-92
2023/03/08 09:23:18;;;;;;;0.37;0.37;;;4.00;99.90;;;;;;5051854;28;20201;-92
2023/03/08 09:25:44;;;;;;;0.60;0.60;;;4.20;99.90;;;;;;5075321;28;20224;-92
2023/03/08 09:28:12;;;;;;;0.40;0.40;;;4.00;99.90;;;;;;5059080;28;20621;-92
2023/03/08 09:30:38;;;;;;;0.57;0.57;;;3.90;99.90;;;;;;5076575;28;20568;-92
2023/03/08 09:33:04;;;;;;;0.60;0.60;;;3.80;99.90;;;;;;5075284;28;20212;-92
2023/03/08 09:35:30;;;;;;;0.43;0.43;;;3.90;99.90;;;;;;5059130;28;20223;-91
2023/03/08 09:38:00;;;;;;;0.43;0.43;;;4.00;99.90;;;;;;5060543;28;20212;-91
2023/03/08 09:40:27;;;;;;;0.30;0.30;;;4.10;99.90;;;;;;5063403;28;20208;-91
2023/03/08 09:43:02;;;;;;;1.90;0.63;;;4.30;99.90;;;;;;5114703;27;20188;-92
2023/03/08 09:45:32;;;;;;;3.03;1.10;;;4.20;99.90;;;;;;5117941;28;20227;-95
2023/03/08 09:48:17;;;;;;;0.77;0.60;;;4.30;99.90;;;;;;5096303;28;20204;-94
2023/03/08 09:50:52;;;;;;;0.70;0.70;;;4.40;99.90;;;;;;5115725;28;20207;-96
2023/03/08 09:53:33;;;;;;;0.60;0.60;;;4.60;99.90;;;;;;5126232;28;20207;-93
2023/03/08 09:56:32;;;;;;;0.30;0.30;;;4.40;99.90;;;;;;5123756;27;20219;-92
2023/03/08 09:59:13;;;;;;;0.40;0.40;;;4.30;99.90;;;;;;5107591;28;20703;-93
2023/03/08 10:01:56;;;;;;;0.43;0.23;;;4.50;99.90;;;;;;5125429;28;20271;-95
2023/03/08 10:04:58;;;;;;;0.30;0.30;;;4.50;99.90;;;;;;5123040;28;20184;-93
2023/03/08 10:07:48;;;;;;;0.63;0.63;;;4.70;99.90;;;;;;5059974;22;20183;-83
2023/03/08 10:10:22;;;;;;;0.87;0.87;;;5.20;99.90;;;;;;5053510;28;20189;-83
2023/03/08 10:12:59;;;;;;;0.40;0.40;;;5.20;99.90;;;;;;5044546;28;20188;-82
2023/03/08 10:15:27;;;;;;;0.23;0.23;;;5.30;99.90;;;;;;5052282;28;20826;-88
2023/03/08 10:18:12;;;;;;;0.50;0.50;;;5.50;99.90;;;;;;5064077;28;20221;-83
2023/03/08 10:20:39;;;;;;;0.40;0.40;;;5.60;99.90;;;;;;5063501;28;20257;-84
2023/03/08 10:23:20;;;;;;;0.33;0.33;;;5.60;99.90;;;;;;5064337;28;20210;-87
2023/03/08 10:25:47;;;;;;;0.60;0.60;;;5.80;99.90;;;;;;5063408;28;20232;-83
2023/03/08 10:28:17;;;;;;;0.50;0.50;;;5.80;99.90;;;;;;5050807;28;20286;-82
2023/03/08 10:30:57;;;;;;;0.30;0.30;;;5.90;99.90;;;;;;5083980;28;20193;-84
2023/03/08 10:33:25;;;;;;;1.67;1.57;;;5.80;99.90;;;;;;5063088;28;20228;-83
2023/03/08 10:36:11;;;;;;;2.00;0.47;;;5.90;99.90;;;;;;5063329;28;20229;-82
2023/03/08 10:38:38;;;;;;;0.20;0.20;;;6.10;99.90;;;;;;5063745;28;20740;-83
2023/03/08 10:41:13;;;;;;;0.40;0.40;;;6.40;99.90;;;;;;5053139;28;20213;-82
2023/03/08 10:43:51;;;;;;;0.50;0.50;;;6.20;99.90;;;;;;5051800;28;20615;-87
2023/03/08 10:46:20;;;;;;;0.20;0.20;;;6.30;99.90;;;;;;5063065;28;20242;-83
2023/03/08 10:48:46;;;;;;;0.20;0.20;;;6.30;99.90;;;;;;5069419;28;20272;-82
2023/03/08 10:51:23;;;;;;;0.30;0.30;;;6.20;99.90;;;;;;5062894;28;20335;-82
2023/03/08 10:54:03;;;;;;;0.30;0.30;;;6.20;99.90;;;;;;5061057;28;20216;-88
2023/03/08 10:56:43;;;;;;;0.40;0.40;;;6.10;99.90;;;;;;5054954;28;20873;-88
2023/03/08 10:59:26;;;;;;;0.63;0.60;;;6.20;99.90;;;;;;5063011;28;20617;-88
2023/03/08 11:01:55;;;;;;;0.23;0.23;;;6.20;99.90;;;;;;5051458;28;20746;-82
2023/03/08 11:04:26;;;;;;;0.83;0.50;;;5.90;99.90;;;;;;5050253;28;20181;-84
2023/03/08 11:06:52;;;;;;;0.53;0.53;;;6.10;99.90;;;;;;5070103;28;20272;-84
2023/03/08 11:09:30;;;;;;;0.53;0.53;;;6.20;99.90;;;;;;5061197;28;20253;-84
2023/03/08 11:11:58;;;;;;;1.23;0.97;;;6.10;99.90;;;;;;5061456;28;20259;-83
2023/03/08 11:14:25;;;;;;;0.43;0.43;;;6.10;99.90;;;;;;5051112;28;20221;-81
2023/03/08 11:16:51;;;;;;;0.40;0.40;;;6.10;99.90;;;;;;5048253;28;20250;-88
2023/03/08 11:19:35;;;;;;;0.30;0.30;;;6.20;99.90;;;;;;5062552;28;20220;-82
2023/03/08 11:22:34;;;;;;;0.60;0.60;;;6.00;99.90;;;;;;5063503;28;20221;-85
2023/03/08 11:25:27;;;;;;;0.20;0.20;;;6.00;99.90;;;;;;5061638;28;20217;-88
2023/03/08 11:27:59;;;;;;;0.30;0.30;;;6.00;99.90;;;;;;5052327;28;20197;-82
2023/03/08 11:30:33;;;;;;;0.47;0.47;;;5.80;99.90;;;;;;5049947;28;20713;-82
2023/03/08 11:33:32;;;;;;;0.30;0.30;;;5.80;99.90;;;;;;5062513;28;20223;-83
2023/03/08 11:36:07;;;;;;;0.30;0.30;;;5.50;99.90;;;;;;5062428;28;20213;-86
2023/03/08 11:38:35;;;;;;;0.50;0.40;;;5.60;99.90;;;;;;5043804;28;20233;-84
2023/03/08 11:41:26;;;;;;;0.30;0.30;;;5.50;99.90;;;;;;5062481;28;20223;-83
2023/03/08 11:43:57;;;;;;;0.53;0.53;;;5.50;99.90;;;;;;5050966;28;20213;-83
2023/03/08 11:46:35;;;;;;;0.40;0.40;;;5.40;99.90;;;;;;5061828;28;20439;-87
2023/03/08 11:49:14;;;;;;;0.97;0.60;;;5.50;99.90;;;;;;5063076;28;20196;-82
2023/03/08 11:51:54;;;;;;;0.30;0.30;;;5.50;99.90;;;;;;5062855;28;20220;-87
2023/03/08 11:54:50;;;;;;;0.30;0.30;;;5.40;99.90;;;;;;5062023;28;20263;-83
2023/03/08 11:57:17;;;;;;;0.30;0.30;;;5.60;99.90;;;;;;5062046;28;20225;-83
2023/03/08 11:59:59;;;;;;;0.20;0.20;;;5.60;99.90;;;;;;5062311;28;20679;-84
2023/03/08 12:02:33;;;;;;;0.20;0.20;;;5.50;99.90;;;;;;5062308;28;20907;-83
2023/03/08 12:05:20;;;;;;;1.43;0.30;;;5.70;99.90;;;;;;5053960;28;20695;-83
2023/03/08 12:07:54;;;;;;;0.63;0.63;;;5.50;99.90;;;;;;5062107;28;20771;-82
2023/03/08 12:10:24;;;;;;;0.30;0.30;;;5.50;99.90;;;;;;5051983;28;20220;-84
2023/03/08 12:12:57;;;;;;;0.30;0.30;;;5.40;99.90;;;;;;5062331;28;20189;-81
2023/03/08 12:15:36;;;;;;;0.30;0.30;;;5.60;99.90;;;;;;5049556;28;20237;-81
2023/03/08 12:18:21;;;;;;;0.30;0.30;;;5.70;99.90;;;;;;5085269;28;20247;-83
2023/03/08 12:20:49;;;;;;;0.43;0.43;;;5.70;99.90;;;;;;5053403;28;20312;-82
2023/03/08 12:23:44;;;;;;;0.20;0.20;;;5.80;99.90;;;;;;5051076;28;20633;-87
2023/03/08 12:26:39;;;;;;;1.50;0.80;;;5.80;99.90;;;;;;5042877;28;20258;-83
2023/03/08 12:29:14;;;;;;;0.30;0.30;;;5.70;99.90;;;;;;5061640;28;20758;-89
2023/03/08 12:31:45;;;;;;;0.30;0.30;;;5.70;99.90;;;;;;5068690;28;20296;-84
2023/03/08 12:34:26;;;;;;;0.20;0.20;;;5.80;99.90;;;;;;5065195;28;20185;-81
2023/03/08 12:36:52;;;;;;;3.20;1.90;;;5.90;99.90;;;;;;5062380;28;20231;-81
2023/03/08 12:39:33;;;;;;;0.30;0.30;;;5.90;99.90;;;;;;5048750;28;20563;-81
2023/03/08 12:42:01;;;;;;;0.43;0.43;;;5.70;99.90;;;;;;5065678;28;20220;-85
2023/03/08 12:44:29;;;;;;;0.47;0.47;;;5.70;99.90;;;;;;5065507;28;20686;-84
2023/03/08 12:47:01;;;;;;;0.30;0.30;;;5.60;99.90;;;;;;5065869;28;20275;-83
2023/03/08 12:49:32;;;;;;;0.30;0.30;;;5.50;99.90;;;;;;5057045;28;20875;-86
2023/03/08 12:52:17;;;;;;;0.83;0.43;;;5.50;99.90;;;;;;5066090;28;20185;-87
2023/03/08 12:55:15;;;;;;;0.30;0.30;;;5.40;99.90;;;;;;5064722;28;20263;-82
2023/03/08 12:57:50;;;;;;;0.30;0.30;;;5.40;99.90;;;;;;5052367;28;20332;-82
2023/03/08 13:00:18;;;;;;;0.30;0.30;;;5.60;99.90;;;;;;5065110;28;20225;-84
2023/03/08 13:02:45;;;;;;;0.30;0.30;;;5.70;99.90;;;;;;5065604;28;20229;-82
2023/03/08 13:05:28;;;;;;;0.30;0.30;;;5.60;99.90;;;;;;5054553;28;20244;-82
2023/03/08 13:08:13;;;;;;;1.13;1.07;;;5.60;99.90;;;;;;5064702;28;20239;-81
2023/03/08 13:11:00;;;;;;;1.67;1.57;;;5.70;99.90;;;;;;5063681;28;20713;-80
2023/03/08 13:14:09;;;;;;;0.47;0.47;;;5.60;99.90;;;;;;5064531;28;20216;-87
2023/03/08 13:16:38;;;;;;;0.30;0.30;;;5.60;99.90;;;;;;5014499;28;20228;-84